createdAt,value
2018-07-22T00:00:55.688Z,96.94
2018-07-22T00:03:24.922Z,97.25
2018-07-22T00:05:54.051Z,97.36
2018-07-22T00:08:23.194Z,97.21
2018-07-22T00:10:52.334Z,97.68
2018-07-22T00:13:21.465Z,97.21
2018-07-22T00:15:50.580Z,96.92
2018-07-22T00:18:19.716Z,96.96
2018-07-22T00:20:48.857Z,96.76
2018-07-22T00:23:17.972Z,97.13
2018-07-22T00:25:47.120Z,96.71
2018-07-22T00:28:16.240Z,97.17
2018-07-22T00:30:45.373Z,97.43
2018-07-22T00:33:14.489Z,97.55
2018-07-22T00:35:43.639Z,97.51
2018-07-22T00:38:12.759Z,97.89
2018-07-22T00:40:41.889Z,98.08
2018-07-22T00:43:11.017Z,97.87
2018-07-22T00:45:40.137Z,97.64
2018-07-22T00:48:09.268Z,97.97
2018-07-22T00:50:38.400Z,97.40
2018-07-22T00:53:07.532Z,97.27
2018-07-22T00:55:36.656Z,97.22
2018-07-22T00:58:05.825Z,96.46
2018-07-22T01:00:34.958Z,95.94
2018-07-22T01:03:04.089Z,96.43
2018-07-22T01:05:33.217Z,96.09
2018-07-22T01:08:02.357Z,95.70
2018-07-22T01:10:31.481Z,96.17
2018-07-22T01:13:00.616Z,95.97
2018-07-22T01:15:29.745Z,96.42
2018-07-22T01:17:58.882Z,96.54
2018-07-22T01:20:28.004Z,96.67
2018-07-22T01:22:57.140Z,96.97
2018-07-22T01:25:26.070Z,96.39
2018-07-22T01:27:55.200Z,96.71
2018-07-22T01:30:24.324Z,97.21
2018-07-22T01:32:53.450Z,97.20
2018-07-22T01:35:22.580Z,97.17
2018-07-22T01:37:51.705Z,97.30
2018-07-22T01:40:20.849Z,97.01
2018-07-22T01:42:49.973Z,96.73
2018-07-22T01:45:19.119Z,97.22
2018-07-22T01:47:48.241Z,96.69
2018-07-22T01:50:17.371Z,96.81
2018-07-22T01:52:46.513Z,96.29
2018-07-22T01:55:15.657Z,96.50
2018-07-22T01:57:44.792Z,95.51
2018-07-22T02:00:13.925Z,95.84
2018-07-22T02:02:43.043Z,95.96
2018-07-22T02:05:12.209Z,96.42
2018-07-22T02:07:41.327Z,95.94
2018-07-22T02:10:10.472Z,95.81
2018-07-22T02:12:39.625Z,95.71
2018-07-22T02:15:08.744Z,95.71
2018-07-22T02:17:37.871Z,96.08
2018-07-22T02:20:07.014Z,96.19
2018-07-22T02:22:36.154Z,96.24
2018-07-22T02:25:05.296Z,96.53
2018-07-22T02:27:34.432Z,95.64
2018-07-22T02:30:03.368Z,95.70
2018-07-22T02:32:32.618Z,95.39
2018-07-22T02:35:01.523Z,95.52
2018-07-22T02:37:30.665Z,95.85
2018-07-22T02:39:59.785Z,96.15
2018-07-22T02:42:28.912Z,96.41
2018-07-22T02:44:58.037Z,96.21
2018-07-22T02:47:27.161Z,95.92
2018-07-22T02:49:56.292Z,96.35
2018-07-22T02:52:25.204Z,96.85
2018-07-22T02:54:54.333Z,96.80
2018-07-22T02:57:23.478Z,97.47
2018-07-22T02:59:52.602Z,98.07
2018-07-22T03:02:21.745Z,98.40
2018-07-22T03:04:50.882Z,98.71
2018-07-22T03:07:20.002Z,99.63
2018-07-22T03:09:49.161Z,99.61
2018-07-22T03:12:18.317Z,99.97
2018-07-22T03:14:47.449Z,99.95
2018-07-22T03:17:16.355Z,100.00
2018-07-22T03:19:45.488Z,99.82
2018-07-22T03:22:14.621Z,99.97
2018-07-22T03:24:43.761Z,100.00
2018-07-22T03:27:12.893Z,100.00
2018-07-22T03:29:42.036Z,100.00
2018-07-22T03:32:11.172Z,100.00
2018-07-22T03:34:40.313Z,100.00
2018-07-22T03:37:09.221Z,99.89
2018-07-22T03:39:38.368Z,100.00
2018-07-22T03:42:07.570Z,100.00
2018-07-22T03:44:36.708Z,99.88
2018-07-22T03:47:05.951Z,99.74
2018-07-22T03:49:35.085Z,100.00
2018-07-22T03:52:04.217Z,99.96
2018-07-22T03:54:33.352Z,99.93
2018-07-22T03:57:02.480Z,100.00
2018-07-22T03:59:31.632Z,100.00
2018-07-22T04:02:00.765Z,99.31
2018-07-22T04:04:29.666Z,99.75
2018-07-22T04:06:58.831Z,99.94
2018-07-22T04:09:27.945Z,99.37
2018-07-22T04:11:57.085Z,99.89
2018-07-22T04:14:26.212Z,99.76
2018-07-22T04:16:55.344Z,99.84
2018-07-22T04:19:24.517Z,100.00
2018-07-22T04:21:53.674Z,100.00
2018-07-22T04:24:22.809Z,100.00
2018-07-22T04:26:51.941Z,99.73
2018-07-22T04:29:21.089Z,99.99
2018-07-22T04:31:50.227Z,100.00
2018-07-22T04:34:19.128Z,99.68
2018-07-22T04:36:48.268Z,99.93
2018-07-22T04:39:17.402Z,99.56
2018-07-22T04:41:46.537Z,99.74
2018-07-22T04:44:15.690Z,99.71
2018-07-22T04:46:44.841Z,100.00
2018-07-22T04:49:13.977Z,99.59
2018-07-22T04:51:43.117Z,99.59
2018-07-22T04:54:12.257Z,100.00
2018-07-22T04:56:41.404Z,99.77
2018-07-22T04:59:10.536Z,100.00
2018-07-22T05:01:39.664Z,99.65
2018-07-22T05:04:08.584Z,99.38
2018-07-22T05:06:37.718Z,100.00
2018-07-22T05:09:10.745Z,99.88
2018-07-22T05:11:40.036Z,99.80
2018-07-22T05:14:08.972Z,99.80
2018-07-22T05:16:38.137Z,99.69
2018-07-22T05:19:07.736Z,99.40
2018-07-22T05:21:36.873Z,99.02
2018-07-22T05:24:06.132Z,98.71
2018-07-22T05:26:35.281Z,98.86
2018-07-22T05:29:04.428Z,98.06
2018-07-22T05:31:33.553Z,97.85
2018-07-22T05:34:02.702Z,98.12
2018-07-22T05:36:31.829Z,98.20
2018-07-22T05:39:00.977Z,98.19
2018-07-22T05:41:30.101Z,98.07
2018-07-22T05:43:59.231Z,97.18
2018-07-22T05:46:28.365Z,97.13
2018-07-22T05:48:57.505Z,97.19
2018-07-22T05:51:26.632Z,96.71
2018-07-22T05:53:55.802Z,96.79
2018-07-22T05:56:24.880Z,96.53
2018-07-22T05:58:54.031Z,96.54
2018-07-22T06:01:23.166Z,96.73
2018-07-22T06:03:52.316Z,96.93
2018-07-22T06:06:21.582Z,96.83
2018-07-22T06:08:50.709Z,96.62
2018-07-22T06:11:19.837Z,97.28
2018-07-22T06:13:48.980Z,97.28
2018-07-22T06:16:18.524Z,97.30
2018-07-22T06:18:47.653Z,97.18
2018-07-22T06:21:16.784Z,96.72
2018-07-22T06:23:45.895Z,96.61
2018-07-22T06:26:15.045Z,95.46
2018-07-22T06:28:43.944Z,96.09
2018-07-22T06:31:13.085Z,95.86
2018-07-22T06:33:42.221Z,96.30
2018-07-22T06:36:11.385Z,96.03
2018-07-22T06:38:40.515Z,95.52
2018-07-22T06:41:09.463Z,95.55
2018-07-22T06:43:38.637Z,95.24
2018-07-22T06:46:08.163Z,96.31
2018-07-22T06:48:37.282Z,96.02
2018-07-22T06:51:06.421Z,95.49
2018-07-22T06:53:35.625Z,94.88
2018-07-22T06:56:04.712Z,93.78
2018-07-22T06:58:33.864Z,94.23
2018-07-22T07:01:03.042Z,94.11
2018-07-22T07:03:32.148Z,94.61
2018-07-22T07:06:01.276Z,94.06
2018-07-22T07:08:30.450Z,93.29
2018-07-22T07:10:59.583Z,93.12
2018-07-22T07:13:28.699Z,92.57
2018-07-22T07:15:57.827Z,93.85
2018-07-22T07:18:26.952Z,92.71
2018-07-22T07:20:56.107Z,91.38
2018-07-22T07:23:25.220Z,90.45
2018-07-22T07:25:54.361Z,88.98
2018-07-22T07:28:23.504Z,88.93
2018-07-22T07:30:52.632Z,87.49
2018-07-22T07:33:21.786Z,87.17
2018-07-22T07:35:50.916Z,86.69
2018-07-22T07:38:20.046Z,85.21
2018-07-22T07:40:49.209Z,86.74
2018-07-22T07:43:18.730Z,86.00
2018-07-22T07:45:47.924Z,85.60
2018-07-22T07:48:17.058Z,83.35
2018-07-22T07:50:46.192Z,84.21
2018-07-22T07:53:15.348Z,85.50
2018-07-22T07:55:44.520Z,85.08
2018-07-22T07:58:13.653Z,84.08
2018-07-22T08:00:42.789Z,82.23
2018-07-22T08:03:11.915Z,84.60
2018-07-22T08:05:41.053Z,84.76
2018-07-22T08:08:10.197Z,83.75
2018-07-22T08:10:39.111Z,83.22
2018-07-22T08:13:08.243Z,83.89
2018-07-22T08:15:37.393Z,83.77
2018-07-22T08:18:06.576Z,84.25
2018-07-22T08:20:35.721Z,85.07
2018-07-22T08:23:05.073Z,83.92
2018-07-22T08:25:33.989Z,83.92
2018-07-22T08:28:03.276Z,84.58
2018-07-22T08:30:32.190Z,83.97
2018-07-22T08:33:01.348Z,83.58
2018-07-22T08:35:30.485Z,81.70
2018-07-22T08:37:59.639Z,81.07
2018-07-22T08:40:28.756Z,81.03
2018-07-22T08:42:57.901Z,81.15
2018-07-22T08:45:27.028Z,80.23
2018-07-22T08:47:56.173Z,81.72
2018-07-22T08:50:25.301Z,83.23
2018-07-22T08:52:54.432Z,82.95
2018-07-22T08:55:23.577Z,84.11
2018-07-22T08:57:52.713Z,83.49
2018-07-22T09:00:21.623Z,82.05
2018-07-22T09:02:50.768Z,83.76
2018-07-22T09:05:19.895Z,84.88
2018-07-22T09:07:48.823Z,83.93
2018-07-22T09:10:17.955Z,84.01
2018-07-22T09:12:47.124Z,84.58
2018-07-22T09:15:16.284Z,85.65
2018-07-22T09:17:45.226Z,85.68
2018-07-22T09:20:14.385Z,87.21
2018-07-22T09:22:43.595Z,87.09
2018-07-22T09:25:13.355Z,88.50
2018-07-22T09:27:42.831Z,91.24
2018-07-22T09:30:12.392Z,93.36
2018-07-22T09:32:41.696Z,94.93
2018-07-22T09:35:10.948Z,94.92
2018-07-22T09:37:40.199Z,94.11
2018-07-22T09:40:09.372Z,94.01
2018-07-22T09:42:38.523Z,93.33
2018-07-22T09:45:07.685Z,94.03
2018-07-22T09:47:36.805Z,93.83
2018-07-22T09:50:05.949Z,94.74
2018-07-22T09:52:35.093Z,94.17
2018-07-22T09:55:04.253Z,94.23
2018-07-22T09:57:33.151Z,94.49
2018-07-22T10:00:02.360Z,93.83
2018-07-22T10:02:31.484Z,92.55
2018-07-22T10:05:00.613Z,90.85
2018-07-22T10:07:29.832Z,89.59
2018-07-22T10:09:58.973Z,89.63
2018-07-22T10:12:28.108Z,89.48
2018-07-22T10:14:57.256Z,87.75
2018-07-22T10:17:26.403Z,87.29
2018-07-22T10:19:55.605Z,86.84
2018-07-22T10:22:24.742Z,85.40
2018-07-22T10:24:53.883Z,86.82
2018-07-22T10:27:23.017Z,84.01
2018-07-22T10:29:52.155Z,85.72
2018-07-22T10:32:21.293Z,84.29
2018-07-22T10:34:50.246Z,82.85
2018-07-22T10:37:19.445Z,83.61
2018-07-22T10:39:48.576Z,81.76
2018-07-22T10:42:17.727Z,80.79
2018-07-22T10:44:46.864Z,81.94
2018-07-22T10:47:16.002Z,80.43
2018-07-22T10:49:45.140Z,81.23
2018-07-22T10:52:14.327Z,83.47
2018-07-22T10:54:43.457Z,82.08
2018-07-22T10:57:12.615Z,79.84
2018-07-22T10:59:42.057Z,79.14
2018-07-22T11:02:10.976Z,77.62
2018-07-22T11:04:40.136Z,80.53
2018-07-22T11:07:09.280Z,80.36
2018-07-22T11:09:38.663Z,78.48
2018-07-22T11:12:07.808Z,75.91
2018-07-22T11:14:36.996Z,75.22
2018-07-22T11:17:06.509Z,76.10
2018-07-22T11:19:35.650Z,74.19
2018-07-22T11:22:04.811Z,73.88
2018-07-22T11:24:33.948Z,75.24
2018-07-22T11:27:03.125Z,76.00
2018-07-22T11:29:32.331Z,75.40
2018-07-22T11:32:01.465Z,74.10
2018-07-22T11:34:30.606Z,74.61
2018-07-22T11:36:59.825Z,74.14
2018-07-22T11:39:28.738Z,69.80
2018-07-22T11:41:57.872Z,71.01
2018-07-22T11:44:27.008Z,72.75
2018-07-22T11:46:56.215Z,69.17
2018-07-22T11:49:25.365Z,70.60
2018-07-22T11:51:54.510Z,70.52
2018-07-22T11:54:23.667Z,69.80
2018-07-22T11:56:52.804Z,69.57
2018-07-22T11:59:21.993Z,67.63
2018-07-22T12:01:51.140Z,67.79
2018-07-22T12:04:20.276Z,67.80
2018-07-22T12:06:49.198Z,70.66
2018-07-22T12:09:18.340Z,67.39
2018-07-22T12:11:47.487Z,65.95
2018-07-22T12:14:16.623Z,67.38
2018-07-22T12:16:45.752Z,64.14
2018-07-22T12:19:14.887Z,65.83
2018-07-22T12:21:44.020Z,65.29
2018-07-22T12:24:13.235Z,64.26
2018-07-22T12:26:42.373Z,65.54
2018-07-22T12:29:11.567Z,66.46
2018-07-22T12:31:40.637Z,65.68
2018-07-22T12:34:09.776Z,63.06
2018-07-22T12:36:38.909Z,67.19
2018-07-22T12:39:10.785Z,64.28
2018-07-22T12:41:39.755Z,65.04
2018-07-22T12:44:08.900Z,64.61
2018-07-22T12:46:38.061Z,61.39
2018-07-22T12:49:07.665Z,57.64
2018-07-22T12:51:36.842Z,59.86
2018-07-22T12:54:06.017Z,55.13
2018-07-22T12:56:35.161Z,56.27
2018-07-22T12:59:04.300Z,57.37
2018-07-22T13:01:33.442Z,57.22
2018-07-22T13:04:02.627Z,54.55
2018-07-22T13:06:31.881Z,55.55
2018-07-22T13:09:01.057Z,51.33
2018-07-22T13:11:30.222Z,52.69
2018-07-22T13:13:59.408Z,50.39
2018-07-22T13:16:28.590Z,51.37
2018-07-22T13:18:57.804Z,52.94
2018-07-22T13:21:27.097Z,53.37
2018-07-22T13:23:56.662Z,54.37
2018-07-22T13:26:26.231Z,53.80
2018-07-22T13:28:55.655Z,56.17
2018-07-22T13:31:24.714Z,58.78
2018-07-22T13:33:54.164Z,56.94
2018-07-22T13:36:23.565Z,56.47
2018-07-22T13:38:52.976Z,55.43
2018-07-22T13:41:22.250Z,58.81
2018-07-22T13:43:51.249Z,58.10
2018-07-22T13:46:20.433Z,57.82
2018-07-22T13:48:50.380Z,56.93
2018-07-22T13:51:24.221Z,57.07
2018-07-22T13:53:53.576Z,56.22
2018-07-22T13:56:22.860Z,58.34
2018-07-22T13:58:52.178Z,57.70
2018-07-22T14:01:21.511Z,58.07
2018-07-22T14:03:50.766Z,57.45
2018-07-22T14:06:19.736Z,58.23
2018-07-22T14:08:49.014Z,58.90
2018-07-22T14:11:18.229Z,60.20
2018-07-22T14:13:47.443Z,60.90
2018-07-22T14:16:16.797Z,59.29
2018-07-22T14:18:46.024Z,58.56
2018-07-22T14:21:15.242Z,57.99
2018-07-22T14:23:44.711Z,58.07
2018-07-22T14:26:13.948Z,57.93
2018-07-22T14:28:42.942Z,62.03
2018-07-22T14:31:12.192Z,60.30
2018-07-22T14:33:41.403Z,61.24
2018-07-22T14:36:10.624Z,61.63
2018-07-22T14:38:39.830Z,60.07
2018-07-22T14:41:08.948Z,61.55
2018-07-22T14:43:38.049Z,61.43
2018-07-22T14:46:07.931Z,62.03
2018-07-22T14:48:37.045Z,63.05
2018-07-22T14:51:06.446Z,60.66
2018-07-22T14:53:35.836Z,62.89
2018-07-22T14:56:05.503Z,64.87
2018-07-22T14:58:34.729Z,66.89
2018-07-22T15:01:03.932Z,66.58
2018-07-22T15:03:33.068Z,68.06
2018-07-22T15:06:02.218Z,68.55
2018-07-22T15:08:31.356Z,67.02
2018-07-22T15:11:00.494Z,65.82
2018-07-22T15:13:29.633Z,65.85
2018-07-22T15:15:58.550Z,68.63
2018-07-22T15:18:27.686Z,67.43
2018-07-22T15:20:56.849Z,68.65
2018-07-22T15:23:25.989Z,68.52
2018-07-22T15:25:55.125Z,68.63
2018-07-22T15:28:24.247Z,68.75
2018-07-22T15:30:53.414Z,67.26
2018-07-22T15:48:18.999Z,69.03
2018-07-22T15:50:48.244Z,68.48
2018-07-22T15:53:17.433Z,66.52
2018-07-22T15:55:46.687Z,65.20
2018-07-22T15:58:15.805Z,64.04
2018-07-22T16:00:44.724Z,64.35
2018-07-22T16:03:13.899Z,62.71
2018-07-22T16:05:43.038Z,61.20
2018-07-22T16:08:12.198Z,64.93
2018-07-22T16:10:41.340Z,62.18
2018-07-22T16:13:10.485Z,63.19
2018-07-22T16:15:39.628Z,63.11
2018-07-22T16:18:08.777Z,64.45
2018-07-22T16:20:37.917Z,63.46
2018-07-22T16:23:07.109Z,63.28
2018-07-22T16:25:36.222Z,64.06
2018-07-22T16:28:05.375Z,65.73
2018-07-22T16:30:34.513Z,66.06
2018-07-22T16:33:03.699Z,65.78
2018-07-22T16:35:32.850Z,66.34
2018-07-22T16:38:02.016Z,65.02
2018-07-22T16:40:31.181Z,65.09
2018-07-22T16:43:00.329Z,64.82
2018-07-22T16:45:29.493Z,64.95
2018-07-22T16:47:58.627Z,64.78
2018-07-22T16:50:28.031Z,64.74
2018-07-22T16:52:56.936Z,65.27
2018-07-22T16:55:26.078Z,66.30
2018-07-22T16:57:55.203Z,65.92
2018-07-22T17:00:24.725Z,66.60
2018-07-22T17:02:53.850Z,66.01
2018-07-22T17:05:23.011Z,66.15
2018-07-22T17:07:52.140Z,66.81
2018-07-22T17:10:21.353Z,67.71
2018-07-22T17:12:50.476Z,67.75
2018-07-22T17:15:19.604Z,68.49
2018-07-22T17:17:48.740Z,67.92
2018-07-22T17:20:17.880Z,68.84
2018-07-22T17:22:47.009Z,69.38
2018-07-22T17:25:16.129Z,67.79
2018-07-22T17:27:45.273Z,69.02
2018-07-22T17:30:14.200Z,68.81
2018-07-22T17:32:43.323Z,70.30
2018-07-22T17:35:12.461Z,69.96
2018-07-22T17:37:41.609Z,70.15
2018-07-22T17:40:10.741Z,71.20
2018-07-22T17:42:39.898Z,70.52
2018-07-22T17:45:09.033Z,70.67
2018-07-22T17:47:38.161Z,70.64
2018-07-22T17:50:07.294Z,72.30
2018-07-22T17:52:36.447Z,71.39
2018-07-22T17:55:05.696Z,72.68
2018-07-22T17:57:34.854Z,73.26
2018-07-22T18:00:04.036Z,73.99
2018-07-22T18:02:33.173Z,74.29
2018-07-22T18:05:02.305Z,75.12
2018-07-22T18:07:31.445Z,74.84
2018-07-22T18:10:00.590Z,73.52
2018-07-22T18:12:29.740Z,73.40
2018-07-22T18:14:58.875Z,74.54
2018-07-22T18:17:28.021Z,76.78
2018-07-22T18:19:57.175Z,75.99
2018-07-22T18:22:26.305Z,76.17
2018-07-22T18:24:55.444Z,76.20
2018-07-22T18:27:24.577Z,75.94
2018-07-22T18:29:53.717Z,76.26
2018-07-22T18:32:22.861Z,76.15
2018-07-22T18:34:51.997Z,77.17
2018-07-22T18:37:21.147Z,76.45
2018-07-22T18:39:50.258Z,76.76
2018-07-22T18:42:19.395Z,75.94
2018-07-22T18:44:48.536Z,76.36
2018-07-22T18:47:17.671Z,76.47
2018-07-22T18:49:46.849Z,76.35
2018-07-22T18:52:15.950Z,76.72
2018-07-22T18:54:45.284Z,77.42
2018-07-22T18:57:14.420Z,76.08
2018-07-22T18:59:43.626Z,77.25
2018-07-22T19:02:12.860Z,77.44
2018-07-22T19:04:42.009Z,76.05
2018-07-22T19:07:11.134Z,76.81
2018-07-22T19:09:40.271Z,77.13
2018-07-22T19:12:09.398Z,78.50
2018-07-22T19:14:38.547Z,78.95
2018-07-22T19:17:07.678Z,78.80
2018-07-22T19:19:36.853Z,78.41
2018-07-22T19:22:05.998Z,77.63
2018-07-22T19:24:35.168Z,78.29
2018-07-22T19:27:04.075Z,78.02
2018-07-22T19:29:33.240Z,78.40
2018-07-22T19:32:02.372Z,78.12
2018-07-22T19:34:31.496Z,77.79
2018-07-22T19:37:00.629Z,77.59
2018-07-22T19:39:29.781Z,77.50
2018-07-22T19:41:58.924Z,78.18
2018-07-22T19:44:28.069Z,78.24
2018-07-22T19:46:57.222Z,78.23
2018-07-22T19:49:26.353Z,78.84
2018-07-22T19:51:55.275Z,79.76
2018-07-22T19:54:24.418Z,79.37
2018-07-22T19:56:53.553Z,79.42
2018-07-22T19:59:22.717Z,78.92
2018-07-22T20:01:51.873Z,78.31
2018-07-22T20:04:21.010Z,79.34
2018-07-22T20:06:50.223Z,79.39
2018-07-22T20:09:19.306Z,78.96
2018-07-22T20:11:48.446Z,79.30
2018-07-22T20:14:17.590Z,79.21
2018-07-22T20:16:46.742Z,80.29
2018-07-22T20:19:15.878Z,80.41
2018-07-22T20:21:45.025Z,80.80
2018-07-22T20:24:14.192Z,80.99
2018-07-22T20:26:43.308Z,81.36
2018-07-22T20:29:12.441Z,81.90
2018-07-22T20:31:41.621Z,82.11
2018-07-22T20:34:10.734Z,82.17
2018-07-22T20:36:39.877Z,81.80
2018-07-22T20:39:11.104Z,82.50
2018-07-22T20:41:41.254Z,82.57
2018-07-22T20:44:10.548Z,82.57
2018-07-22T20:46:39.471Z,82.34
2018-07-22T20:49:08.622Z,82.32
2018-07-22T20:51:37.749Z,81.45
2018-07-22T20:54:06.902Z,81.36
2018-07-22T20:56:36.053Z,81.58
2018-07-22T20:59:05.337Z,82.76
2018-07-22T21:01:34.477Z,82.56
2018-07-22T21:04:03.605Z,82.22
2018-07-22T21:06:32.824Z,82.57
2018-07-22T21:09:01.933Z,83.49
2018-07-22T21:12:49.754Z,83.28
2018-07-22T21:15:18.935Z,83.42
2018-07-22T21:17:49.017Z,83.81
2018-07-22T21:20:18.967Z,83.87
2018-07-22T21:22:48.108Z,83.68
2018-07-22T21:25:17.779Z,83.24
2018-07-22T21:27:46.915Z,83.05
2018-07-22T21:30:16.488Z,82.60
2018-07-22T21:32:45.389Z,83.21
2018-07-22T21:35:14.531Z,83.35
2018-07-22T21:37:43.673Z,83.93
2018-07-22T21:40:12.818Z,83.19
2018-07-22T21:42:41.953Z,83.45
2018-07-22T21:45:11.093Z,82.19
2018-07-22T21:47:40.233Z,82.90
2018-07-22T21:50:09.382Z,83.55
2018-07-22T21:52:38.504Z,83.41
2018-07-22T21:55:07.656Z,82.70
2018-07-22T21:57:37.255Z,82.69
2018-07-22T22:00:19.428Z,83.18
2018-07-22T22:02:48.548Z,83.01
2018-07-22T22:05:17.550Z,82.84
2018-07-22T22:07:46.698Z,83.45
2018-07-22T22:10:15.846Z,84.08
2018-07-22T22:12:44.972Z,84.28
2018-07-22T22:15:18.961Z,83.74
2018-07-22T22:17:48.098Z,83.56
2018-07-22T22:20:17.248Z,84.42
2018-07-22T22:22:46.629Z,83.99
2018-07-22T22:25:15.531Z,85.10
2018-07-22T22:27:44.710Z,86.03
2018-07-22T22:30:15.241Z,85.88
2018-07-22T22:32:44.890Z,86.20
2018-07-22T22:35:14.029Z,85.75
2018-07-22T22:37:43.885Z,86.09
2018-07-22T22:40:14.013Z,86.38
2018-07-22T22:42:44.421Z,86.37
2018-07-22T22:45:13.734Z,86.91
2018-07-22T22:47:42.862Z,86.49
2018-07-22T22:50:11.994Z,86.37
2018-07-22T22:52:41.315Z,86.15
2018-07-22T22:55:10.438Z,85.91
2018-07-22T22:57:40.759Z,85.93
2018-07-22T23:00:09.890Z,86.21
2018-07-22T23:02:39.025Z,86.09
2018-07-22T23:05:08.618Z,86.30
2018-07-22T23:07:37.746Z,87.13
2018-07-22T23:10:06.884Z,86.05
2018-07-22T23:12:36.041Z,86.24
2018-07-22T23:15:05.189Z,86.33
2018-07-22T23:17:34.333Z,85.03
2018-07-22T23:20:03.470Z,86.06
2018-07-22T23:22:32.604Z,86.39
2018-07-22T23:25:01.725Z,87.60
2018-07-22T23:27:30.845Z,88.20
2018-07-22T23:29:59.992Z,87.84
2018-07-22T23:32:29.716Z,87.23
2018-07-22T23:34:58.851Z,87.27
2018-07-22T23:37:27.990Z,87.72
2018-07-22T23:39:56.895Z,87.37
2018-07-22T23:42:26.043Z,88.05
2018-07-22T23:44:55.173Z,87.72
2018-07-22T23:47:24.296Z,87.25
2018-07-22T23:49:53.437Z,87.46
2018-07-22T23:52:22.565Z,85.86
2018-07-22T23:54:51.704Z,85.41
2018-07-22T23:57:20.828Z,85.12
2018-07-22T23:59:49.966Z,84.88
